createdAt,value
2019-04-29T00:01:40.183Z,101625.34
2019-04-29T00:04:10.113Z,101623.07
2019-04-29T00:06:40.132Z,101616.34
2019-04-29T00:09:15.644Z,101612.08
2019-04-29T00:11:45.679Z,101612.08
2019-04-29T00:14:15.560Z,101613.23
2019-04-29T00:16:57.838Z,101614.49
2019-04-29T00:19:36.425Z,101608.51
2019-04-29T00:22:06.601Z,101604.33
2019-04-29T00:24:36.546Z,101614.53
2019-04-29T00:27:06.558Z,101611.03
2019-04-29T00:29:36.607Z,101612.32
2019-04-29T00:32:07.212Z,101617.64
2019-04-29T00:34:37.149Z,101608.41
2019-04-29T00:37:33.330Z,101609.16
2019-04-29T00:40:25.055Z,101609.94
2019-04-29T00:43:01.853Z,101607.78
2019-04-29T00:45:31.790Z,101605.72
2019-04-29T00:48:01.735Z,101603.62
2019-04-29T00:50:31.604Z,101600.89
2019-04-29T00:53:01.560Z,101604.08
2019-04-29T00:55:32.941Z,101603.28
2019-04-29T00:58:02.913Z,101600.52
2019-04-29T01:00:37.794Z,101605.78
2019-04-29T01:03:07.917Z,101604.00
2019-04-29T01:05:38.469Z,101607.86
2019-04-29T01:08:08.615Z,101608.31
2019-04-29T01:10:38.535Z,101609.03
2019-04-29T01:13:08.663Z,101603.86
2019-04-29T01:15:38.694Z,101604.67
2019-04-29T01:18:08.731Z,101608.11
2019-04-29T01:20:38.601Z,101609.16
2019-04-29T01:23:08.848Z,101610.22
2019-04-29T01:25:38.720Z,101606.30
2019-04-29T01:28:29.070Z,101601.03
2019-04-29T01:31:04.508Z,101607.54
2019-04-29T01:33:34.539Z,101602.27
2019-04-29T01:36:18.963Z,101596.53
2019-04-29T01:38:50.128Z,101602.22
2019-04-29T01:41:22.326Z,101596.45
2019-04-29T01:44:11.171Z,101596.69
2019-04-29T01:46:41.046Z,101588.12
2019-04-29T01:49:10.934Z,101590.56
2019-04-29T01:51:40.892Z,101589.44
2019-04-29T01:54:10.881Z,101587.67
2019-04-29T01:56:41.068Z,101585.36
2019-04-29T01:59:10.943Z,101578.70
2019-04-29T02:01:40.844Z,101580.06
2019-04-29T02:04:11.157Z,101575.41
2019-04-29T02:06:41.051Z,101575.26
2019-04-29T02:09:15.683Z,101571.97
2019-04-29T02:11:45.567Z,101575.84
2019-04-29T02:14:15.589Z,101580.98
2019-04-29T02:16:45.489Z,101577.59
2019-04-29T02:19:15.374Z,101572.63
2019-04-29T02:22:04.214Z,101576.16
2019-04-29T02:24:35.617Z,101567.08
2019-04-29T02:27:05.878Z,101570.00
2019-04-29T02:29:35.874Z,101566.61
2019-04-29T02:32:05.959Z,101559.81
2019-04-29T02:34:35.872Z,101559.27
2019-04-29T02:37:07.507Z,101553.84
2019-04-29T02:39:45.344Z,101552.20
2019-04-29T02:42:43.226Z,101551.92
2019-04-29T02:45:21.668Z,101548.89
2019-04-29T02:47:51.542Z,101541.91
2019-04-29T02:50:21.436Z,101539.30
2019-04-29T02:52:51.322Z,101535.23
2019-04-29T02:55:29.738Z,101534.66
2019-04-29T02:58:24.725Z,101526.10
2019-04-29T03:01:13.728Z,101526.52
2019-04-29T03:03:54.076Z,101528.30
2019-04-29T03:06:24.110Z,101522.61
2019-04-29T03:08:54.000Z,101525.47
2019-04-29T03:11:25.589Z,101523.66
2019-04-29T03:13:55.582Z,101517.02
2019-04-29T03:16:25.597Z,101520.93
2019-04-29T03:19:00.245Z,101513.00
2019-04-29T03:21:37.800Z,101514.27
2019-04-29T03:24:07.661Z,101511.61
2019-04-29T03:26:37.562Z,101513.41
2019-04-29T03:29:22.227Z,101511.61
2019-04-29T03:31:54.284Z,101508.64
2019-04-29T03:34:26.458Z,101506.11
2019-04-29T03:36:56.155Z,101509.45
2019-04-29T03:39:26.166Z,101502.58
2019-04-29T03:41:56.106Z,101496.64
2019-04-29T03:44:25.984Z,101496.31
2019-04-29T03:46:55.884Z,101493.80
2019-04-29T03:49:25.733Z,101488.72
2019-04-29T03:51:56.190Z,101484.02
2019-04-29T03:54:26.062Z,101478.97
2019-04-29T03:56:55.943Z,101480.83
2019-04-29T03:59:25.838Z,101491.56
2019-04-29T04:02:11.872Z,101484.07
2019-04-29T04:05:01.293Z,101485.23
2019-04-29T04:07:38.798Z,101479.81
2019-04-29T04:10:10.264Z,101481.11
2019-04-29T04:12:40.175Z,101468.97
2019-04-29T04:15:10.517Z,101469.20
2019-04-29T04:17:46.020Z,101475.91
2019-04-29T04:20:16.142Z,101469.39
2019-04-29T04:22:47.020Z,101462.09
2019-04-29T04:25:17.623Z,101467.16
2019-04-29T04:27:48.202Z,101470.54
2019-04-29T04:30:20.058Z,101471.47
2019-04-29T04:32:49.950Z,101466.87
2019-04-29T04:35:19.888Z,101462.04
2019-04-29T04:37:49.835Z,101466.67
2019-04-29T04:40:25.885Z,101464.78
2019-04-29T04:42:55.805Z,101464.51
2019-04-29T04:45:25.678Z,101471.70
2019-04-29T04:47:55.565Z,101464.89
2019-04-29T04:50:25.447Z,101461.88
2019-04-29T04:52:55.340Z,101456.17
2019-04-29T04:55:28.155Z,101457.70
2019-04-29T04:57:58.087Z,101450.48
2019-04-29T05:00:29.707Z,101454.20
2019-04-29T05:02:59.681Z,101451.50
2019-04-29T05:05:29.630Z,101442.55
2019-04-29T05:07:59.631Z,101446.51
2019-04-29T05:10:29.741Z,101448.57
2019-04-29T05:12:59.709Z,101439.81
2019-04-29T05:15:29.606Z,101442.00
2019-04-29T05:17:59.557Z,101445.88
2019-04-29T05:20:29.448Z,101433.47
2019-04-29T05:22:59.365Z,101452.49
2019-04-29T05:25:34.657Z,101443.98
2019-04-29T05:28:05.261Z,101445.08
2019-04-29T05:30:35.164Z,101443.02
2019-04-29T05:33:05.231Z,101451.16
2019-04-29T05:35:44.772Z,101447.00
2019-04-29T05:38:20.412Z,101448.36
2019-04-29T05:40:51.480Z,101451.63
2019-04-29T05:43:26.957Z,101451.72
2019-04-29T05:46:07.791Z,101446.00
2019-04-29T05:48:37.711Z,101441.80
2019-04-29T05:51:27.343Z,101444.41
2019-04-29T05:53:58.501Z,101435.98
2019-04-29T05:56:28.547Z,101443.77
2019-04-29T05:58:58.584Z,101447.44
2019-04-29T06:01:30.595Z,101448.80
2019-04-29T06:04:00.553Z,101455.43
2019-04-29T06:06:30.500Z,101458.39
2019-04-29T06:09:00.414Z,101466.45
2019-04-29T06:11:30.352Z,101465.16
2019-04-29T06:14:00.386Z,101460.84
2019-04-29T06:16:30.280Z,101463.58
2019-04-29T06:19:03.107Z,101461.56
2019-04-29T06:21:31.799Z,101465.54
2019-04-29T06:24:04.205Z,101465.44
2019-04-29T06:26:33.813Z,101470.22
2019-04-29T06:29:05.917Z,101461.41
2019-04-29T06:31:35.691Z,101453.34
2019-04-29T06:34:06.556Z,101445.91
2019-04-29T06:36:36.683Z,101441.16
2019-04-29T06:39:07.779Z,101439.02
2019-04-29T06:41:40.509Z,101430.60
2019-04-29T06:44:16.030Z,101423.58
2019-04-29T06:46:41.086Z,101418.42
2019-04-29T06:49:11.044Z,101419.01
2019-04-29T06:51:40.956Z,101421.98
2019-04-29T06:54:10.926Z,101410.64
2019-04-29T06:56:40.946Z,101413.17
2019-04-29T06:59:12.058Z,101413.70
2019-04-29T07:01:42.556Z,101415.09
2019-04-29T07:04:12.478Z,101427.11
2019-04-29T07:06:56.435Z,101428.20
2019-04-29T07:09:14.017Z,101433.61
2019-04-29T07:11:44.014Z,101442.91
2019-04-29T07:14:13.898Z,101437.70
2019-04-29T07:16:43.877Z,101435.05
2019-04-29T07:19:13.822Z,101422.91
2019-04-29T07:21:46.879Z,101410.13
2019-04-29T07:24:15.606Z,101403.27
2019-04-29T07:26:45.656Z,101424.82
2019-04-29T07:29:15.533Z,101428.98
2019-04-29T07:31:45.433Z,101425.06
2019-04-29T07:34:15.320Z,101430.51
2019-04-29T07:36:45.629Z,101422.30
2019-04-29T07:39:15.612Z,101414.47
2019-04-29T07:41:45.643Z,101420.45
2019-04-29T07:44:18.411Z,101418.30
2019-04-29T07:46:58.263Z,101419.89
2019-04-29T07:49:24.221Z,101419.04
2019-04-29T07:51:54.708Z,101418.56
2019-04-29T07:54:24.710Z,101424.66
2019-04-29T07:56:54.590Z,101420.20
2019-04-29T07:59:24.477Z,101424.74
2019-04-29T08:01:55.714Z,101423.97
2019-04-29T08:04:26.552Z,101428.84
2019-04-29T08:06:57.089Z,101419.14
2019-04-29T08:09:27.219Z,101417.88
2019-04-29T08:11:57.912Z,101414.92
2019-04-29T08:14:30.761Z,101415.56
2019-04-29T08:17:01.324Z,101420.31
2019-04-29T08:19:31.658Z,101415.59
2019-04-29T08:22:01.832Z,101414.98
2019-04-29T08:24:31.813Z,101428.80
2019-04-29T08:27:02.137Z,101420.82
2019-04-29T08:29:35.853Z,101429.00
2019-04-29T08:32:03.678Z,101438.03
2019-04-29T08:34:33.603Z,101433.72
2019-04-29T08:37:03.656Z,101433.75
2019-04-29T08:39:33.630Z,101423.53
2019-04-29T08:42:09.001Z,101426.76
2019-04-29T08:44:59.644Z,101429.34
2019-04-29T08:47:31.806Z,101425.35
2019-04-29T08:50:02.212Z,101428.64
2019-04-29T08:52:32.168Z,101424.06
2019-04-29T08:55:02.254Z,101427.61
2019-04-29T08:57:36.538Z,101419.08
2019-04-29T09:00:05.242Z,101429.77
2019-04-29T09:02:35.817Z,101419.87
2019-04-29T09:05:11.409Z,101416.77
2019-04-29T09:07:38.810Z,101407.95
2019-04-29T09:10:10.267Z,101412.91
2019-04-29T09:12:40.523Z,101408.55
2019-04-29T09:15:11.907Z,101410.59
2019-04-29T09:17:41.879Z,101412.27
2019-04-29T09:20:12.607Z,101414.02
2019-04-29T09:22:47.286Z,101406.03
2019-04-29T09:25:31.949Z,101406.90
2019-04-29T09:28:06.085Z,101402.92
2019-04-29T09:30:38.620Z,101403.88
2019-04-29T09:33:08.730Z,101409.77
2019-04-29T09:35:40.583Z,101404.37
2019-04-29T09:38:10.891Z,101401.27
2019-04-29T09:40:45.979Z,101396.48
2019-04-29T09:43:47.311Z,101404.95
2019-04-29T09:46:21.912Z,101390.44
2019-04-29T09:48:51.856Z,101400.91
2019-04-29T09:51:22.821Z,101393.92
2019-04-29T09:53:53.545Z,101395.02
2019-04-29T09:56:23.484Z,101393.98
2019-04-29T09:59:12.685Z,101398.51
2019-04-29T10:01:50.534Z,101397.74
2019-04-29T10:04:28.548Z,101387.76
2019-04-29T10:06:58.960Z,101392.00
2019-04-29T10:09:29.043Z,101386.28
2019-04-29T10:11:58.995Z,101387.23
2019-04-29T10:14:29.059Z,101392.98
2019-04-29T10:17:19.458Z,101395.72
2019-04-29T10:20:04.411Z,101387.23
2019-04-29T10:22:34.991Z,101391.84
2019-04-29T10:25:05.963Z,101388.04
2019-04-29T10:27:35.989Z,101390.09
2019-04-29T10:30:07.400Z,101391.95
2019-04-29T10:32:37.832Z,101400.59
2019-04-29T10:35:10.726Z,101391.56
2019-04-29T10:37:40.993Z,101389.42
2019-04-29T10:40:31.878Z,101390.30
2019-04-29T10:43:36.030Z,101391.81
2019-04-29T10:46:24.440Z,101396.16
2019-04-29T10:49:05.304Z,101392.48
2019-04-29T10:51:35.580Z,101391.43
2019-04-29T10:54:06.034Z,101383.34
2019-04-29T10:56:39.460Z,101392.48
2019-04-29T10:59:11.119Z,101397.65
2019-04-29T11:02:34.323Z,101387.65
2019-04-29T11:05:20.547Z,101387.27
2019-04-29T11:07:52.411Z,101385.89
2019-04-29T11:10:26.757Z,101395.58
2019-04-29T11:12:57.338Z,101383.47
2019-04-29T11:15:38.154Z,101399.70
2019-04-29T11:18:08.578Z,101392.91
2019-04-29T11:20:38.520Z,101395.02
2019-04-29T11:23:18.130Z,101403.11
2019-04-29T11:26:10.223Z,101390.80
2019-04-29T11:28:41.869Z,101391.32
2019-04-29T11:31:13.997Z,101391.23
2019-04-29T11:33:56.826Z,101383.14
2019-04-29T11:36:26.783Z,101389.02
2019-04-29T11:38:56.914Z,101380.38
2019-04-29T11:41:30.640Z,101375.83
2019-04-29T11:44:00.716Z,101382.48
2019-04-29T11:46:31.421Z,101389.05
2019-04-29T11:49:03.044Z,101380.48
2019-04-29T11:51:48.413Z,101385.80
2019-04-29T11:54:12.316Z,101386.44
2019-04-29T11:56:40.605Z,101383.81
2019-04-29T11:59:29.414Z,101382.16
2019-04-29T12:02:10.888Z,101376.98
2019-04-29T12:04:44.464Z,101385.34
2019-04-29T12:07:14.368Z,101376.63
2019-04-29T12:09:44.594Z,101376.27
2019-04-29T12:12:15.770Z,101377.73
2019-04-29T12:14:55.216Z,101370.77
2019-04-29T12:17:38.036Z,101371.14
2019-04-29T12:20:27.136Z,101373.66
2019-04-29T12:22:57.024Z,101367.89
2019-04-29T12:25:28.980Z,101369.91
2019-04-29T12:28:01.566Z,101358.00
2019-04-29T12:30:36.355Z,101362.16
2019-04-29T12:33:11.846Z,101349.16
2019-04-29T12:35:51.862Z,101366.55
2019-04-29T12:38:40.136Z,101348.72
2019-04-29T12:41:21.065Z,101350.70
2019-04-29T12:43:59.414Z,101356.34
2019-04-29T12:46:40.727Z,101344.80
2019-04-29T12:49:13.575Z,101343.98
2019-04-29T12:51:42.394Z,101338.33
2019-04-29T12:54:12.433Z,101336.53
2019-04-29T12:56:47.400Z,101331.48
2019-04-29T12:59:14.660Z,101333.06
2019-04-29T13:02:02.518Z,101334.78
2019-04-29T13:04:54.924Z,101330.48
2019-04-29T13:07:50.752Z,101333.17
2019-04-29T13:10:29.817Z,101326.73
2019-04-29T13:12:59.844Z,101320.34
2019-04-29T13:15:39.482Z,101317.55
2019-04-29T13:18:22.801Z,101326.37
2019-04-29T13:20:50.456Z,101322.02
2019-04-29T13:23:33.226Z,101320.66
2019-04-29T13:25:50.951Z,101319.80
2019-04-29T13:28:29.840Z,101305.65
2019-04-29T13:30:56.729Z,101303.06
2019-04-29T13:33:25.290Z,101304.75
2019-04-29T13:35:55.162Z,101311.27
2019-04-29T13:38:25.097Z,101305.67
2019-04-29T13:41:12.004Z,101304.73
2019-04-29T13:43:27.231Z,101302.55
2019-04-29T13:46:10.390Z,101304.27
2019-04-29T13:49:12.317Z,101292.66
2019-04-29T13:51:35.975Z,101290.06
2019-04-29T13:54:06.086Z,101284.44
2019-04-29T13:56:55.697Z,101280.53
2019-04-29T13:59:10.567Z,101275.30
2019-04-29T14:02:00.071Z,101281.44
2019-04-29T14:04:36.969Z,101274.03
2019-04-29T14:07:06.982Z,101273.03
2019-04-29T14:09:39.199Z,101271.47
2019-04-29T14:12:46.634Z,101269.26
2019-04-29T14:14:40.459Z,101266.59
2019-04-29T14:17:25.305Z,101259.22
2019-04-29T14:19:44.023Z,101261.52
2019-04-29T14:22:22.050Z,101261.95
2019-04-29T14:24:46.987Z,101254.14
2019-04-29T14:27:24.434Z,101262.75
2019-04-29T14:29:51.474Z,101268.28
2019-04-29T14:32:33.310Z,101267.58
2019-04-29T14:34:59.031Z,101262.34
2019-04-29T14:37:29.440Z,101266.91
2019-04-29T14:40:02.797Z,101263.23
2019-04-29T14:42:41.625Z,101258.80
2019-04-29T14:45:33.293Z,101260.11
2019-04-29T14:48:26.725Z,101262.66
2019-04-29T14:50:56.592Z,101258.84
2019-04-29T14:53:26.490Z,101251.42
2019-04-29T14:55:56.456Z,101266.48
2019-04-29T14:58:26.311Z,101258.31
2019-04-29T15:01:10.143Z,101256.44
2019-04-29T15:03:57.900Z,101252.57
2019-04-29T15:06:28.921Z,101255.64
2019-04-29T15:08:59.280Z,101253.73
2019-04-29T15:11:34.886Z,101259.86
2019-04-29T15:14:25.789Z,101257.13
2019-04-29T15:17:03.305Z,101256.42
2019-04-29T15:19:58.230Z,101251.77
2019-04-29T15:22:32.178Z,101256.07
2019-04-29T15:25:02.071Z,101259.66
2019-04-29T15:27:32.231Z,101259.56
2019-04-29T15:30:02.210Z,101252.15
2019-04-29T15:32:32.146Z,101256.91
2019-04-29T15:35:02.527Z,101258.66
2019-04-29T15:37:33.687Z,101253.00
2019-04-29T15:40:04.205Z,101257.32
2019-04-29T15:42:37.958Z,101258.08
2019-04-29T15:45:06.969Z,101256.78
2019-04-29T15:47:37.029Z,101253.61
2019-04-29T15:50:18.266Z,101256.38
2019-04-29T15:52:39.670Z,101254.97
2019-04-29T15:55:09.863Z,101270.81
2019-04-29T15:57:40.270Z,101253.87
2019-04-29T16:00:21.646Z,101253.81
2019-04-29T16:02:44.055Z,101259.06
2019-04-29T16:05:30.003Z,101255.06
2019-04-29T16:08:08.937Z,101253.84
2019-04-29T16:10:51.746Z,101261.20
2019-04-29T16:13:22.669Z,101266.41
2019-04-29T16:15:52.220Z,101266.80
2019-04-29T16:18:22.304Z,101270.80
2019-04-29T16:20:54.123Z,101263.87
2019-04-29T16:23:23.975Z,101256.00
2019-04-29T16:25:54.500Z,101255.05
2019-04-29T16:28:31.587Z,101261.14
2019-04-29T16:30:56.262Z,101265.14
2019-04-29T16:33:26.347Z,101271.58
2019-04-29T16:36:04.386Z,101273.25
2019-04-29T16:38:28.224Z,101262.91
2019-04-29T16:41:12.448Z,101271.66
2019-04-29T16:43:45.166Z,101266.87
2019-04-29T16:48:51.045Z,101276.11
2019-04-29T16:51:21.344Z,101266.56
2019-04-29T16:53:51.370Z,101284.63
2019-04-29T16:56:21.868Z,101286.42
2019-04-29T16:58:51.902Z,101277.39
2019-04-29T17:01:22.611Z,101275.62
2019-04-29T17:03:52.673Z,101285.60
2019-04-29T17:06:22.829Z,101291.29
2019-04-29T17:09:23.959Z,101297.38
2019-04-29T17:11:56.046Z,101287.42
2019-04-29T17:14:26.576Z,101303.02
2019-04-29T17:16:56.691Z,101304.78
2019-04-29T17:19:26.599Z,101297.85
2019-04-29T17:22:23.272Z,101309.52
2019-04-29T17:24:28.411Z,101311.28
2019-04-29T17:27:06.955Z,101311.72
2019-04-29T17:30:03.559Z,101326.84
2019-04-29T17:32:46.858Z,101310.81
2019-04-29T17:35:14.348Z,101265.59
2019-04-29T17:35:21.141Z,101308.70
2019-04-29T17:37:45.602Z,101316.89
2019-04-29T17:40:19.399Z,101316.89
2019-04-29T17:42:53.859Z,101316.91
2019-04-29T17:45:31.613Z,101328.14
2019-04-29T17:48:12.511Z,101323.82
2019-04-29T17:50:48.088Z,101339.34
2019-04-29T17:53:25.487Z,101331.56
2019-04-29T17:56:01.515Z,101339.27
2019-04-29T17:58:36.109Z,101349.22
2019-04-29T18:01:25.914Z,101359.08
2019-04-29T18:04:16.730Z,101364.39
2019-04-29T18:06:48.807Z,101358.60
2019-04-29T18:09:27.880Z,101355.15
2019-04-29T18:11:58.938Z,101357.83
2019-04-29T18:14:36.565Z,101372.84
2019-04-29T18:17:00.723Z,101374.73
2019-04-29T18:19:37.772Z,101365.82
2019-04-29T18:22:25.711Z,101371.73
2019-04-29T18:25:01.250Z,101387.85
2019-04-29T18:27:34.459Z,101384.25
2019-04-29T18:30:07.149Z,101384.89
2019-04-29T18:32:42.090Z,101389.20
2019-04-29T18:35:09.495Z,101394.16
2019-04-29T18:37:39.406Z,101399.50
2019-04-29T18:40:10.216Z,101396.80
2019-04-29T18:42:43.255Z,101408.34
2019-04-29T18:45:12.643Z,101422.42
2019-04-29T18:47:42.585Z,101420.07
2019-04-29T18:50:13.306Z,101418.51
2019-04-29T18:52:43.184Z,101425.05
2019-04-29T18:55:13.209Z,101427.80
2019-04-29T18:57:43.102Z,101430.50
2019-04-29T19:00:19.058Z,101432.21
2019-04-29T19:02:52.319Z,101432.74
2019-04-29T19:05:26.403Z,101433.57
2019-04-29T19:07:57.043Z,101444.24
2019-04-29T19:10:32.923Z,101438.75
2019-04-29T19:13:00.244Z,101433.28
2019-04-29T19:15:28.957Z,101440.10
2019-04-29T19:18:01.814Z,101434.56
2019-04-29T19:20:30.476Z,101440.23
2019-04-29T19:23:07.781Z,101447.98
2019-04-29T19:25:32.160Z,101447.89
2019-04-29T19:28:11.961Z,101436.41
2019-04-29T19:30:35.527Z,101452.94
2019-04-29T19:33:05.943Z,101450.19
2019-04-29T19:35:38.693Z,101450.86
2019-04-29T19:38:12.420Z,101451.72
2019-04-29T19:40:42.387Z,101452.66
2019-04-29T19:43:17.423Z,101452.00
2019-04-29T19:45:44.648Z,101448.16
2019-04-29T19:48:16.135Z,101444.20
2019-04-29T19:50:50.167Z,101444.95
2019-04-29T19:53:17.957Z,101449.30
2019-04-29T19:55:47.842Z,101454.89
2019-04-29T19:58:22.935Z,101451.73
2019-04-29T20:00:49.830Z,101459.39
2019-04-29T20:03:23.839Z,101457.45
2019-04-29T20:06:07.995Z,101455.45
2019-04-29T20:08:50.196Z,101459.89
2019-04-29T20:11:11.282Z,101472.66
2019-04-29T20:13:33.764Z,101454.30
2019-04-29T20:16:40.554Z,101469.58
2019-04-29T20:19:20.443Z,101460.66
2019-04-29T20:21:47.403Z,101468.66
2019-04-29T20:24:22.816Z,101460.53
2019-04-29T20:26:50.379Z,101460.91
2019-04-29T20:29:21.311Z,101472.79
2019-04-29T20:31:53.947Z,101466.50
2019-04-29T20:34:24.608Z,101465.42
2019-04-29T20:36:55.755Z,101465.33
2019-04-29T20:39:26.481Z,101471.45
2019-04-29T20:42:01.097Z,101468.70
2019-04-29T20:44:29.842Z,101472.86
2019-04-29T20:47:16.512Z,101464.01
2019-04-29T20:49:36.007Z,101476.00
2019-04-29T20:52:25.911Z,101473.36
2019-04-29T20:55:00.734Z,101483.25
2019-04-29T20:57:28.495Z,101488.66
2019-04-29T20:59:58.516Z,101483.66
2019-04-29T21:02:34.183Z,101486.75
2019-04-29T21:05:00.237Z,101487.95
2019-04-29T21:07:30.712Z,101490.52
2019-04-29T21:10:06.735Z,101492.77
2019-04-29T21:12:41.503Z,101499.85
2019-04-29T21:15:17.663Z,101501.39
2019-04-29T21:17:47.637Z,101505.73
2019-04-29T21:20:17.668Z,101509.59
2019-04-29T21:22:47.580Z,101512.86
2019-04-29T21:25:17.540Z,101509.11
2019-04-29T21:27:48.596Z,101516.28
2019-04-29T21:30:19.153Z,101515.80
2019-04-29T21:32:49.118Z,101518.28
2019-04-29T21:35:38.754Z,101521.31
2019-04-29T21:38:28.365Z,101518.78
2019-04-29T21:41:03.988Z,101519.19
2019-04-29T21:43:36.592Z,101531.98
2019-04-29T21:46:06.814Z,101526.45
2019-04-29T21:48:37.500Z,101533.48
2019-04-29T21:51:11.228Z,101526.30
2019-04-29T21:53:40.394Z,101529.75
2019-04-29T21:56:10.430Z,101525.28
2019-04-29T21:58:41.450Z,101533.41
2019-04-29T22:01:12.411Z,101527.63
2019-04-29T22:03:42.301Z,101517.48
2019-04-29T22:06:12.284Z,101526.11
2019-04-29T22:08:42.166Z,101525.56
2019-04-29T22:11:12.120Z,101528.33
2019-04-29T22:13:42.011Z,101525.20
2019-04-29T22:16:15.779Z,101527.70
2019-04-29T22:18:44.601Z,101527.06
2019-04-29T22:21:21.983Z,101529.03
2019-04-29T22:23:51.031Z,101531.12
2019-04-29T22:26:23.418Z,101530.78
2019-04-29T22:28:53.217Z,101531.36
2019-04-29T22:31:26.952Z,101530.30
2019-04-29T22:33:55.291Z,101523.72
2019-04-29T22:36:26.046Z,101522.14
2019-04-29T22:38:55.936Z,101531.06
2019-04-29T22:41:48.691Z,101535.36
2019-04-29T22:44:21.771Z,101541.34
2019-04-29T22:46:50.080Z,101536.98
2019-04-29T22:49:27.204Z,101527.66
2019-04-29T22:51:54.540Z,101535.08
2019-04-29T22:54:24.614Z,101527.80
2019-04-29T22:56:56.600Z,101533.42
2019-04-29T22:59:27.451Z,101533.34
2019-04-29T23:01:57.977Z,101527.53
2019-04-29T23:04:27.844Z,101529.16
2019-04-29T23:06:57.735Z,101527.03
2019-04-29T23:09:27.617Z,101525.35
2019-04-29T23:11:57.686Z,101525.66
2019-04-29T23:14:27.907Z,101525.94
2019-04-29T23:16:57.817Z,101523.19
2019-04-29T23:19:27.769Z,101528.22
2019-04-29T23:22:22.123Z,101521.91
2019-04-29T23:25:05.591Z,101520.91
2019-04-29T23:27:36.154Z,101528.95
2019-04-29T23:30:07.755Z,101524.27
2019-04-29T23:32:39.461Z,101521.30
2019-04-29T23:35:10.821Z,101521.54
2019-04-29T23:37:41.051Z,101516.64
2019-04-29T23:40:11.320Z,101514.02
2019-04-29T23:42:43.649Z,101516.08
2019-04-29T23:45:20.780Z,101514.86
2019-04-29T23:47:46.949Z,101507.03
2019-04-29T23:50:21.030Z,101505.42
2019-04-29T23:52:52.061Z,101505.27
2019-04-29T23:55:27.386Z,101504.42
2019-04-29T23:58:12.385Z,101504.13
